Detall de PIREP

Printer-friendly versionPDF version

[2013/04/29 17:55:00]
Flight IATA:CT0001
Pilot Number:012
Company ICAO:CAT
Aircraft Type:AT72/F
PAX:22
Departing Airport: LEBL
Destination Airport: LEMH
Alternate Airport:LEPA
Online: VATSIM
Route:DUNES H70 SARGO
Flight Level:F130
No Slew and time accel
No pause
Crash detect
Detect pilot in Cockpit between each 30 and 45 minutes
17:55 Zero fuel Weight: 34016 Lbs, Fuel Weight: 4470 Lbs
17:55 VATSIM:LEBL 291730Z 06020KT 030V100 9999 FEW012 BKN025 15/12 Q1007 NOSIG
17:55 VATSIM:LEMH 291730Z 24011KT 210V270 4500 BR FEW003 BKN006 15/15 Q1006
17:55 VOICE CATALONIAN
17:55 Parking Brakes off
18:00 Take-off
18:00 Take off Weight: 38443 Lbs
18:00 Wind: 066º @ 020 Knots Heading: 064º
18:00 POS N41º 17´ 09´´ E002º 05´ 05´´
18:00 Gear Up: 128 Knots
18:00 Flaps:1 at 128 Knots
18:01 Flaps:0 at 193 Knots
18:07 TOC
18:07 Fuel Weight: 4181 Lb
18:15 Wind:116º@033 Knots Heading:128º Ground Speed: 246 Knots Altitude 12831 ft
18:27 TOD
18:27 Fuel Weight: 3563 Lb
18:30 Wind:157º@022 Knots Heading: 164º Ground Speed: 230 Knots Altitude 9655 ft
18:34 Flaps:1 at 178 Knots
18:34 Gear Down: 164 Knots
18:35 Flaps:2 at 161 Knots
18:38 TouchDown:Rate -209 ft/min Speed: 114 Knots
18:38 Flaps:0 at 39 Knots
18:38 VATSIM:LEMH 291830Z 23008KT 200V270 9999 FEW006 SCT012 15/14 Q1006
18:38 Land
18:38 Wind:209º@011 Knots
18:38 Heading: 190º
18:38 Flight Duration: 00:38
18:38 Landing Weight: 37461 Lbs
18:38 POS N39º 51´ 35´´ E004º 13´ 05´´
18:41 Parking brakes on
18:41 Block to Block Duration: 00:46
18:41 Final Fuel: 3423 Lbls
18:41 Spent Fuel: 1047 Lbls
18:41 Flight Length: 142 NM
18:41 TOD Land Length: 35 NM

Exportar CSV

Powered by Drupal - Modified by Danger4k